Time;durP1;ratioP1;P1;durP2;ratioP2;P2;SDS_P1;SDS_P2;PMS_P1;PMS_P2;Temp;Humidity;BMP_temperature;BMP_pressure;BME280_temperature;BME280_humidity;BME280_pressure;Samples;Min_cycle;Max_cycle;Signal;HPM_P1;HPM_P2
2023/10/26 00:00:42;;;;;;;17.27;3.35;;;;;;;;;;5108348;28;20499;-82
2023/10/26 00:03:08;;;;;;;18.10;4.20;;;;;;;;;;5103071;28;20431;-84
2023/10/26 00:05:35;;;;;;;17.73;3.17;;;;;;;;;;5099599;28;20423;-84
2023/10/26 00:08:03;;;;;;;17.02;3.10;;;;;;;;;;5100426;28;20402;-84
2023/10/26 00:10:30;;;;;;;16.90;3.28;;;;;;;;;;5103790;28;20414;-83
2023/10/26 00:12:56;;;;;;;17.13;3.20;;;;;;;;;;5099824;28;20468;-81
2023/10/26 00:15:24;;;;;;;16.63;2.90;;;;;;;;;;5098152;28;20437;-82
2023/10/26 00:17:51;;;;;;;17.65;3.10;;;;;;;;;;5104364;28;20921;-81
2023/10/26 00:20:17;;;;;;;17.13;3.63;;;;;;;;;;5093043;28;20448;-82
2023/10/26 00:22:44;;;;;;;18.02;3.95;;;;;;;;;;5097729;28;20616;-83
2023/10/26 00:25:11;;;;;;;18.48;4.15;;;;;;;;;;5098726;28;20451;-85
2023/10/26 00:27:40;;;;;;;18.15;4.10;;;;;;;;;;5091668;28;20418;-83
2023/10/26 00:30:08;;;;;;;20.37;5.20;;;;;;;;;;5102583;28;20407;-85
2023/10/26 00:32:37;;;;;;;24.80;5.72;;;;;;;;;;5100477;28;20401;-81
2023/10/26 00:35:04;;;;;;;23.40;6.22;;;;;;;;;;5099652;28;20407;-81
2023/10/26 00:37:31;;;;;;;22.60;6.17;;;;;;;;;;5101247;28;20409;-81
2023/10/26 00:39:58;;;;;;;22.70;7.00;;;;;;;;;;5103435;28;20502;-81
2023/10/26 00:42:25;;;;;;;24.35;7.40;;;;;;;;;;5091295;28;20765;-84
2023/10/26 00:44:53;;;;;;;25.25;7.07;;;;;;;;;;5106016;28;20920;-84
2023/10/26 00:47:20;;;;;;;26.97;8.40;;;;;;;;;;5108363;28;20864;-81
2023/10/26 00:49:48;;;;;;;23.38;7.35;;;;;;;;;;5102184;28;20459;-84
2023/10/26 00:52:15;;;;;;;22.73;6.13;;;;;;;;;;5098596;28;20506;-84
2023/10/26 00:54:42;;;;;;;23.38;6.88;;;;;;;;;;5091432;28;20994;-83
2023/10/26 00:57:09;;;;;;;21.67;6.05;;;;;;;;;;5101771;28;20404;-82
2023/10/26 00:59:38;;;;;;;21.70;6.10;;;;;;;;;;5085801;28;20436;-83
2023/10/26 01:02:05;;;;;;;20.00;4.40;;;;;;;;;;5102946;28;20417;-84
2023/10/26 01:04:32;;;;;;;20.17;4.60;;;;;;;;;;5100620;28;20413;-83
2023/10/26 01:07:00;;;;;;;18.90;4.65;;;;;;;;;;5099490;28;20436;-82
2023/10/26 01:09:27;;;;;;;19.95;4.80;;;;;;;;;;5098457;28;20487;-85
2023/10/26 01:11:54;;;;;;;20.30;5.30;;;;;;;;;;5097482;28;20500;-82
2023/10/26 01:14:21;;;;;;;19.02;4.43;;;;;;;;;;5100351;28;20812;-84
2023/10/26 01:16:47;;;;;;;22.83;5.90;;;;;;;;;;5085894;28;20668;-84
2023/10/26 01:19:14;;;;;;;21.30;5.90;;;;;;;;;;5097433;28;20420;-84
2023/10/26 01:21:48;;;;;;;20.50;5.70;;;;;;;;;;5100878;28;20479;-85
2023/10/26 01:24:15;;;;;;;22.75;6.10;;;;;;;;;;5089164;28;20848;-84
2023/10/26 01:26:42;;;;;;;22.63;6.70;;;;;;;;;;5100920;28;20818;-83
2023/10/26 01:29:08;;;;;;;23.17;6.83;;;;;;;;;;5092914;28;20894;-82
2023/10/26 01:31:35;;;;;;;25.80;7.00;;;;;;;;;;5104256;28;20413;-80
2023/10/26 01:34:02;;;;;;;27.88;7.60;;;;;;;;;;5101577;28;20491;-83
2023/10/26 01:36:28;;;;;;;24.40;7.80;;;;;;;;;;5092464;28;20509;-82
2023/10/26 01:38:56;;;;;;;27.10;8.55;;;;;;;;;;5087499;28;20445;-82
2023/10/26 01:41:23;;;;;;;28.70;8.77;;;;;;;;;;5100125;28;20966;-81
2023/10/26 01:43:49;;;;;;;26.83;9.60;;;;;;;;;;5090869;28;20408;-82
2023/10/26 01:46:16;;;;;;;28.92;9.23;;;;;;;;;;5100737;28;20469;-81
2023/10/26 01:48:43;;;;;;;28.35;9.70;;;;;;;;;;5101391;28;20520;-81
2023/10/26 01:51:09;;;;;;;28.50;9.33;;;;;;;;;;5097195;28;20414;-81
2023/10/26 01:53:36;;;;;;;28.10;9.80;;;;;;;;;;5096016;28;20404;-82
2023/10/26 01:56:06;;;;;;;30.60;11.43;;;;;;;;;;5107492;28;20401;-83
2023/10/26 01:58:33;;;;;;;27.77;10.35;;;;;;;;;;5098794;28;20908;-81
2023/10/26 02:01:00;;;;;;;32.88;9.82;;;;;;;;;;5099029;28;20400;-82
2023/10/26 02:03:26;;;;;;;28.48;9.85;;;;;;;;;;5082118;28;20405;-81
2023/10/26 02:05:53;;;;;;;30.17;9.77;;;;;;;;;;5092072;28;20457;-81
2023/10/26 02:08:21;;;;;;;30.40;10.13;;;;;;;;;;5099737;28;20895;-82
2023/10/26 02:10:47;;;;;;;27.92;9.38;;;;;;;;;;5101807;28;20468;-79
2023/10/26 02:13:18;;;;;;;28.17;10.40;;;;;;;;;;5095545;28;20579;-80
2023/10/26 02:15:44;;;;;;;29.30;9.90;;;;;;;;;;5090209;28;20946;-80
2023/10/26 02:18:11;;;;;;;30.80;10.48;;;;;;;;;;5096142;28;20466;-79
2023/10/26 02:20:37;;;;;;;29.30;10.80;;;;;;;;;;5103229;28;20406;-79
2023/10/26 02:23:04;;;;;;;28.27;9.85;;;;;;;;;;5082028;28;20456;-79
2023/10/26 02:25:31;;;;;;;32.60;10.93;;;;;;;;;;5090313;28;20501;-79
2023/10/26 02:27:58;;;;;;;34.30;10.87;;;;;;;;;;5090168;28;21302;-78
2023/10/26 02:30:26;;;;;;;32.22;11.00;;;;;;;;;;5089615;28;20411;-78
2023/10/26 02:32:53;;;;;;;31.15;10.25;;;;;;;;;;5098888;28;20425;-78
2023/10/26 02:35:20;;;;;;;31.20;11.02;;;;;;;;;;5098454;28;20396;-78
2023/10/26 02:37:47;;;;;;;28.88;10.65;;;;;;;;;;5102961;28;20957;-77
2023/10/26 02:40:14;;;;;;;32.35;10.88;;;;;;;;;;5091129;28;20833;-79
2023/10/26 02:42:41;;;;;;;31.05;10.18;;;;;;;;;;5083675;28;20410;-78
2023/10/26 02:45:08;;;;;;;31.88;10.60;;;;;;;;;;5080307;28;20413;-79
2023/10/26 02:47:37;;;;;;;30.67;10.50;;;;;;;;;;5098855;28;20416;-79
2023/10/26 02:50:05;;;;;;;35.95;10.90;;;;;;;;;;5084347;28;20808;-78
2023/10/26 02:52:32;;;;;;;33.78;11.18;;;;;;;;;;5099772;28;20905;-79
2023/10/26 02:54:59;;;;;;;28.02;10.30;;;;;;;;;;5087009;28;20418;-79
2023/10/26 02:57:25;;;;;;;32.70;11.50;;;;;;;;;;5100566;28;20522;-80
2023/10/26 02:59:53;;;;;;;30.85;11.00;;;;;;;;;;5084160;28;20413;-78
2023/10/26 03:02:20;;;;;;;31.60;11.40;;;;;;;;;;5100316;28;20428;-79
2023/10/26 03:04:48;;;;;;;30.70;11.00;;;;;;;;;;5101191;28;20400;-80
2023/10/26 03:07:22;;;;;;;29.20;10.70;;;;;;;;;;5087256;28;20413;-78
2023/10/26 03:09:49;;;;;;;32.30;10.75;;;;;;;;;;5100953;28;20419;-79
2023/10/26 03:12:16;;;;;;;33.45;10.65;;;;;;;;;;5099252;28;20425;-79
2023/10/26 03:14:43;;;;;;;31.20;11.43;;;;;;;;;;5096455;28;20410;-80
2023/10/26 03:17:11;;;;;;;28.67;10.40;;;;;;;;;;5100085;28;20407;-79
2023/10/26 03:19:38;;;;;;;31.88;11.15;;;;;;;;;;5101027;28;20443;-77
2023/10/26 03:22:06;;;;;;;34.80;10.60;;;;;;;;;;5099660;28;20918;-79
2023/10/26 03:24:34;;;;;;;31.52;12.07;;;;;;;;;;5095025;28;20402;-78
2023/10/26 03:27:01;;;;;;;28.73;10.10;;;;;;;;;;5102191;28;20412;-79
2023/10/26 03:29:28;;;;;;;30.10;10.73;;;;;;;;;;5092122;28;20418;-78
2023/10/26 03:31:54;;;;;;;30.48;11.02;;;;;;;;;;5105761;28;21274;-77
2023/10/26 03:34:21;;;;;;;32.25;10.65;;;;;;;;;;5093130;28;20781;-78
2023/10/26 03:36:47;;;;;;;32.97;11.45;;;;;;;;;;5086841;28;21041;-78
2023/10/26 03:39:16;;;;;;;28.17;10.70;;;;;;;;;;5101279;27;20489;-77
2023/10/26 03:41:43;;;;;;;29.70;10.67;;;;;;;;;;5100163;28;20424;-78
2023/10/26 03:44:09;;;;;;;28.25;11.20;;;;;;;;;;5088723;28;20506;-79
2023/10/26 03:46:37;;;;;;;27.27;9.88;;;;;;;;;;5108397;28;20780;-79
2023/10/26 03:49:03;;;;;;;29.50;9.97;;;;;;;;;;5103320;28;20919;-77
2023/10/26 03:51:30;;;;;;;29.85;10.20;;;;;;;;;;5092045;28;20467;-78
2023/10/26 03:53:56;;;;;;;29.63;10.10;;;;;;;;;;5100895;28;20410;-77
2023/10/26 03:56:25;;;;;;;27.17;10.10;;;;;;;;;;5083688;28;20463;-78
2023/10/26 03:58:52;;;;;;;28.43;10.43;;;;;;;;;;5090269;28;20413;-77
2023/10/26 04:01:18;;;;;;;30.33;10.55;;;;;;;;;;5103152;28;20443;-78
2023/10/26 04:03:45;;;;;;;30.40;12.00;;;;;;;;;;5093148;28;20469;-79
2023/10/26 04:06:12;;;;;;;29.70;11.03;;;;;;;;;;5104208;28;20430;-78
2023/10/26 04:08:41;;;;;;;31.75;11.10;;;;;;;;;;5103094;28;20810;-77
2023/10/26 04:11:08;;;;;;;28.83;10.43;;;;;;;;;;5091311;28;20414;-79
2023/10/26 04:13:36;;;;;;;28.65;10.20;;;;;;;;;;5091637;28;20468;-77
2023/10/26 04:16:03;;;;;;;28.60;10.23;;;;;;;;;;5099383;28;20434;-77
2023/10/26 04:18:30;;;;;;;28.85;10.40;;;;;;;;;;5096337;28;20424;-78
2023/10/26 04:20:57;;;;;;;30.45;10.77;;;;;;;;;;5094322;28;21120;-79
2023/10/26 04:23:24;;;;;;;27.40;9.60;;;;;;;;;;5099509;28;20406;-78
2023/10/26 04:25:51;;;;;;;27.08;9.73;;;;;;;;;;5102200;28;20401;-77
2023/10/26 04:28:21;;;;;;;32.35;11.90;;;;;;;;;;5101101;28;20521;-77
2023/10/26 04:30:49;;;;;;;29.20;11.20;;;;;;;;;;5100140;28;20426;-79
2023/10/26 04:33:16;;;;;;;30.70;11.07;;;;;;;;;;5086309;28;20408;-78
2023/10/26 04:35:43;;;;;;;29.47;10.80;;;;;;;;;;5099965;28;20404;-79
2023/10/26 04:38:10;;;;;;;28.58;10.60;;;;;;;;;;5098329;28;20459;-78
2023/10/26 04:40:38;;;;;;;26.33;9.20;;;;;;;;;;5090652;28;20441;-79
2023/10/26 04:43:05;;;;;;;30.95;10.23;;;;;;;;;;5100602;28;20425;-79
2023/10/26 04:45:32;;;;;;;28.60;9.77;;;;;;;;;;5101178;28;20436;-80
2023/10/26 04:48:00;;;;;;;27.40;10.00;;;;;;;;;;5108737;28;20433;-78
2023/10/26 04:50:30;;;;;;;28.55;9.90;;;;;;;;;;5091125;28;20417;-78
2023/10/26 04:52:57;;;;;;;29.80;9.70;;;;;;;;;;5103927;28;20497;-78
2023/10/26 04:55:23;;;;;;;30.98;11.10;;;;;;;;;;5100526;28;20488;-80
2023/10/26 04:57:52;;;;;;;30.30;10.93;;;;;;;;;;5108612;28;20453;-79
2023/10/26 05:00:22;;;;;;;31.33;11.00;;;;;;;;;;5097430;28;20398;-78
2023/10/26 05:02:50;;;;;;;34.35;11.65;;;;;;;;;;5100810;28;20418;-79
2023/10/26 05:05:19;;;;;;;29.92;10.63;;;;;;;;;;5086998;28;20423;-79
2023/10/26 05:07:45;;;;;;;29.23;10.35;;;;;;;;;;5102204;28;20495;-80
2023/10/26 05:10:12;;;;;;;29.27;10.23;;;;;;;;;;5084571;28;20449;-78
2023/10/26 05:12:39;;;;;;;29.35;11.07;;;;;;;;;;5099665;28;20410;-78
2023/10/26 05:15:05;;;;;;;31.42;10.07;;;;;;;;;;5101256;28;20430;-77
2023/10/26 05:17:35;;;;;;;29.67;10.35;;;;;;;;;;5108853;28;20412;-78
2023/10/26 05:20:03;;;;;;;27.40;9.68;;;;;;;;;;5099693;28;20417;-79
2023/10/26 05:22:33;;;;;;;28.17;10.20;;;;;;;;;;5107747;28;20415;-77
2023/10/26 05:25:04;;;;;;;28.98;9.05;;;;;;;;;;5094551;28;20400;-79
2023/10/26 05:27:31;;;;;;;28.02;9.40;;;;;;;;;;5096766;28;20851;-80
2023/10/26 05:29:59;;;;;;;34.85;9.45;;;;;;;;;;5096045;27;20429;-79
2023/10/26 05:32:26;;;;;;;30.95;9.88;;;;;;;;;;5096136;28;20884;-79
2023/10/26 05:34:52;;;;;;;26.98;10.07;;;;;;;;;;5080539;28;20463;-79
2023/10/26 05:37:19;;;;;;;27.63;9.27;;;;;;;;;;5086088;28;20419;-78
2023/10/26 05:39:47;;;;;;;29.25;9.25;;;;;;;;;;5097313;28;20900;-79
2023/10/26 05:42:13;;;;;;;28.33;9.90;;;;;;;;;;5090540;28;20406;-78
2023/10/26 05:44:41;;;;;;;28.00;9.45;;;;;;;;;;5098396;28;20421;-78
2023/10/26 05:47:08;;;;;;;30.02;10.10;;;;;;;;;;5098382;28;20422;-78
2023/10/26 05:49:35;;;;;;;30.65;9.90;;;;;;;;;;5095923;28;20441;-79
2023/10/26 05:52:03;;;;;;;28.07;9.67;;;;;;;;;;5098592;28;20414;-80
2023/10/26 05:54:30;;;;;;;32.10;10.07;;;;;;;;;;5100504;28;20410;-77
2023/10/26 05:56:58;;;;;;;30.60;9.67;;;;;;;;;;5101953;28;20990;-78
2023/10/26 05:59:26;;;;;;;29.48;9.77;;;;;;;;;;5101157;28;20984;-78
2023/10/26 06:01:52;;;;;;;33.08;10.30;;;;;;;;;;5097878;28;20507;-77
2023/10/26 06:04:19;;;;;;;30.02;10.05;;;;;;;;;;5084346;28;20415;-77
2023/10/26 06:06:46;;;;;;;30.70;9.80;;;;;;;;;;5099387;28;20737;-78
2023/10/26 06:09:12;;;;;;;30.98;10.10;;;;;;;;;;5104951;28;20943;-78
2023/10/26 06:11:39;;;;;;;31.33;10.27;;;;;;;;;;5104382;28;20464;-78
2023/10/26 06:14:08;;;;;;;29.98;9.75;;;;;;;;;;5096429;28;21089;-78
2023/10/26 06:16:35;;;;;;;33.40;9.88;;;;;;;;;;5106767;28;20413;-77
2023/10/26 06:19:02;;;;;;;29.55;9.70;;;;;;;;;;5102960;28;20396;-75
2023/10/26 06:21:28;;;;;;;28.15;10.07;;;;;;;;;;5094371;28;20441;-78
2023/10/26 06:23:55;;;;;;;29.67;9.52;;;;;;;;;;5097571;28;20493;-77
2023/10/26 06:26:22;;;;;;;27.90;8.80;;;;;;;;;;5104523;28;20401;-78
2023/10/26 06:28:48;;;;;;;28.23;9.93;;;;;;;;;;5095980;28;20505;-79
2023/10/26 06:31:16;;;;;;;31.95;10.30;;;;;;;;;;5080278;28;20949;-78
2023/10/26 06:33:43;;;;;;;36.25;11.20;;;;;;;;;;5101197;28;20410;-78
2023/10/26 06:36:10;;;;;;;34.40;11.13;;;;;;;;;;5100843;28;20485;-78
2023/10/26 06:38:37;;;;;;;35.97;11.73;;;;;;;;;;5102693;28;20408;-77
2023/10/26 06:41:04;;;;;;;37.47;12.90;;;;;;;;;;5099613;28;20450;-79
2023/10/26 06:43:31;;;;;;;39.72;13.23;;;;;;;;;;5101039;28;20848;-79
2023/10/26 06:45:57;;;;;;;39.92;12.05;;;;;;;;;;5087636;28;20459;-78
2023/10/26 06:48:26;;;;;;;41.15;13.10;;;;;;;;;;5100537;28;20409;-78
2023/10/26 06:50:56;;;;;;;41.53;13.10;;;;;;;;;;5097279;28;20923;-77
2023/10/26 06:53:24;;;;;;;35.10;11.65;;;;;;;;;;5097606;28;20413;-78
2023/10/26 06:55:51;;;;;;;35.87;10.97;;;;;;;;;;5098803;28;20409;-79
2023/10/26 06:58:18;;;;;;;50.20;17.60;;;;;;;;;;5087293;28;20410;-78
2023/10/26 07:00:45;;;;;;;94.63;35.17;;;;;;;;;;5107798;28;20408;-79
2023/10/26 07:03:19;;;;;;;59.15;22.65;;;;;;;;;;5101159;28;20451;-79
2023/10/26 07:05:47;;;;;;;71.53;30.67;;;;;;;;;;5086462;28;20415;-79
2023/10/26 07:08:15;;;;;;;43.80;17.58;;;;;;;;;;5102997;28;20455;-79
2023/10/26 07:10:42;;;;;;;38.78;15.60;;;;;;;;;;5110030;28;20461;-78
2023/10/26 07:13:09;;;;;;;33.75;13.68;;;;;;;;;;5110722;28;21012;-78
2023/10/26 07:15:36;;;;;;;35.42;12.00;;;;;;;;;;5104747;28;20441;-78
2023/10/26 07:18:03;;;;;;;34.47;11.90;;;;;;;;;;5110105;27;20491;-77
2023/10/26 07:20:30;;;;;;;32.05;11.13;;;;;;;;;;5106953;28;20400;-78
2023/10/26 07:22:58;;;;;;;32.83;10.55;;;;;;;;;;5093316;28;20400;-78
2023/10/26 07:25:24;;;;;;;33.83;11.90;;;;;;;;;;5107043;28;20435;-78
2023/10/26 07:27:51;;;;;;;35.05;12.63;;;;;;;;;;5102817;28;20452;-77
2023/10/26 07:30:18;;;;;;;30.92;11.57;;;;;;;;;;5086124;28;20401;-78
2023/10/26 07:32:44;;;;;;;31.65;10.70;;;;;;;;;;5093132;28;20405;-78
2023/10/26 07:35:14;;;;;;;30.67;10.98;;;;;;;;;;5102701;28;20401;-79
2023/10/26 07:37:41;;;;;;;32.65;11.30;;;;;;;;;;5093153;28;20827;-80
2023/10/26 07:40:09;;;;;;;32.00;10.55;;;;;;;;;;5103140;28;20422;-80
2023/10/26 07:42:54;;;;;;;28.27;10.85;;;;;;;;;;5088371;28;20789;-81
2023/10/26 07:45:21;;;;;;;34.30;11.05;;;;;;;;;;5102493;28;20837;-80
2023/10/26 07:47:48;;;;;;;85.55;35.42;;;;;;;;;;5098497;28;20426;-76
2023/10/26 07:50:19;;;;;;;79.93;34.20;;;;;;;;;;5099737;28;20513;-76
2023/10/26 07:52:46;;;;;;;72.55;34.08;;;;;;;;;;5092923;28;20423;-75
2023/10/26 07:55:14;;;;;;;39.00;15.63;;;;;;;;;;5101208;28;20503;-76
2023/10/26 07:57:45;;;;;;;39.15;14.85;;;;;;;;;;5101053;28;20471;-76
2023/10/26 08:00:12;;;;;;;34.63;13.85;;;;;;;;;;5099750;28;20920;-78
2023/10/26 08:02:39;;;;;;;29.80;10.85;;;;;;;;;;5102449;28;20447;-76
2023/10/26 08:05:07;;;;;;;31.25;11.07;;;;;;;;;;5089457;28;20406;-76
2023/10/26 08:07:35;;;;;;;35.75;11.13;;;;;;;;;;5101532;28;20404;-76
2023/10/26 08:10:01;;;;;;;31.35;11.10;;;;;;;;;;5102170;28;20893;-77
2023/10/26 08:12:29;;;;;;;30.38;10.50;;;;;;;;;;5101404;28;20449;-77
2023/10/26 08:14:57;;;;;;;29.00;10.10;;;;;;;;;;5100202;28;21246;-77
2023/10/26 08:17:43;;;;;;;28.75;11.00;;;;;;;;;;5092070;28;20426;-77
2023/10/26 08:20:10;;;;;;;28.10;11.07;;;;;;;;;;5102981;28;20834;-76
2023/10/26 08:22:37;;;;;;;30.58;11.20;;;;;;;;;;5103880;28;20429;-77
2023/10/26 08:25:04;;;;;;;33.78;10.95;;;;;;;;;;5101849;28;20898;-76
2023/10/26 08:27:32;;;;;;;29.30;11.65;;;;;;;;;;5097727;28;20803;-76
2023/10/26 08:29:58;;;;;;;29.98;10.85;;;;;;;;;;5099864;28;20418;-76
2023/10/26 08:32:25;;;;;;;30.65;11.13;;;;;;;;;;5107181;28;20406;-78
2023/10/26 08:34:52;;;;;;;32.20;11.50;;;;;;;;;;5098552;28;20886;-76
2023/10/26 08:37:19;;;;;;;30.85;11.35;;;;;;;;;;5103143;28;20404;-76
2023/10/26 08:39:45;;;;;;;30.70;11.43;;;;;;;;;;5104847;28;20516;-77
2023/10/26 08:42:12;;;;;;;31.35;12.02;;;;;;;;;;5102998;28;20878;-78
2023/10/26 08:44:43;;;;;;;28.88;10.85;;;;;;;;;;5094224;28;20896;-79
2023/10/26 08:47:11;;;;;;;30.42;11.52;;;;;;;;;;5099288;28;20408;-78
2023/10/26 08:49:38;;;;;;;28.48;10.27;;;;;;;;;;5105105;28;20421;-78
2023/10/26 08:52:05;;;;;;;31.35;10.68;;;;;;;;;;5099860;28;21057;-78
2023/10/26 08:54:31;;;;;;;29.90;11.32;;;;;;;;;;5100390;28;20461;-78
2023/10/26 08:57:04;;;;;;;31.67;11.70;;;;;;;;;;5085651;28;20404;-77
2023/10/26 08:59:30;;;;;;;31.63;11.90;;;;;;;;;;5107620;28;20390;-77
2023/10/26 09:01:59;;;;;;;33.78;13.45;;;;;;;;;;5101765;28;21124;-78
2023/10/26 09:04:25;;;;;;;30.43;12.00;;;;;;;;;;5099076;28;21035;-77
2023/10/26 09:06:52;;;;;;;31.90;12.65;;;;;;;;;;5102180;28;20421;-77
2023/10/26 09:09:19;;;;;;;30.08;12.27;;;;;;;;;;5098809;28;20419;-77
2023/10/26 09:11:48;;;;;;;30.17;11.57;;;;;;;;;;5109872;27;20830;-77
2023/10/26 09:14:15;;;;;;;30.52;12.93;;;;;;;;;;5100419;28;20411;-78
2023/10/26 09:16:45;;;;;;;31.15;11.57;;;;;;;;;;5083249;28;20516;-77
2023/10/26 09:19:14;;;;;;;29.92;11.88;;;;;;;;;;5094325;28;21204;-78
2023/10/26 09:21:48;;;;;;;31.25;12.95;;;;;;;;;;5102607;28;20413;-77
2023/10/26 09:24:19;;;;;;;32.08;12.27;;;;;;;;;;5095140;28;20401;-80
2023/10/26 09:26:46;;;;;;;33.67;12.75;;;;;;;;;;5103556;28;20431;-77
2023/10/26 09:29:12;;;;;;;32.95;13.20;;;;;;;;;;5095629;28;20992;-78
2023/10/26 09:31:51;;;;;;;35.80;12.13;;;;;;;;;;5098919;28;20404;-77
2023/10/26 09:34:21;;;;;;;31.05;12.63;;;;;;;;;;5091001;28;20723;-78
2023/10/26 09:36:58;;;;;;;32.95;13.52;;;;;;;;;;5095476;28;20509;-77
2023/10/26 09:39:26;;;;;;;30.52;12.05;;;;;;;;;;5098786;28;20398;-77
2023/10/26 09:41:53;;;;;;;29.42;11.63;;;;;;;;;;5099659;28;20408;-77
2023/10/26 09:44:20;;;;;;;30.55;11.73;;;;;;;;;;5084877;28;20452;-77
2023/10/26 09:46:47;;;;;;;32.83;11.80;;;;;;;;;;5102138;28;20406;-77
2023/10/26 09:49:14;;;;;;;31.02;11.68;;;;;;;;;;5099660;28;20527;-79
2023/10/26 09:51:43;;;;;;;30.75;11.98;;;;;;;;;;5097246;28;20409;-78
2023/10/26 09:54:10;;;;;;;27.83;10.90;;;;;;;;;;5096456;28;20505;-77
2023/10/26 09:56:39;;;;;;;27.95;10.77;;;;;;;;;;5107309;28;20400;-78
2023/10/26 09:59:05;;;;;;;32.88;11.50;;;;;;;;;;5101825;28;20403;-77
2023/10/26 10:01:33;;;;;;;29.40;11.25;;;;;;;;;;5098425;28;20401;-79
2023/10/26 10:04:01;;;;;;;29.98;12.02;;;;;;;;;;5098326;28;20409;-78
2023/10/26 10:06:46;;;;;;;30.00;11.82;;;;;;;;;;5102178;28;20405;-78
2023/10/26 10:09:13;;;;;;;26.48;10.60;;;;;;;;;;5097578;28;20812;-79
2023/10/26 10:11:40;;;;;;;31.13;11.60;;;;;;;;;;5098884;28;20408;-80
2023/10/26 10:14:07;;;;;;;28.42;10.40;;;;;;;;;;5100540;28;20508;-78
2023/10/26 10:16:50;;;;;;;27.02;9.65;;;;;;;;;;5101857;28;20886;-77
2023/10/26 10:19:18;;;;;;;27.23;9.43;;;;;;;;;;5103049;28;20414;-78
2023/10/26 10:21:48;;;;;;;25.37;8.63;;;;;;;;;;5101542;28;20410;-78
2023/10/26 10:24:44;;;;;;;27.30;10.57;;;;;;;;;;5107672;28;20403;-77
2023/10/26 10:27:12;;;;;;;29.77;10.90;;;;;;;;;;5041456;28;20772;-78
2023/10/26 10:29:39;;;;;;;30.10;9.90;;;;;;;;;;5100159;28;20419;-78
2023/10/26 10:32:05;;;;;;;27.90;11.35;;;;;;;;;;5097876;28;20536;-77
2023/10/26 10:34:41;;;;;;;27.10;10.55;;;;;;;;;;5088178;28;20406;-78
2023/10/26 10:37:13;;;;;;;26.90;9.40;;;;;;;;;;5098765;28;20410;-78
2023/10/26 10:39:57;;;;;;;27.55;10.90;;;;;;;;;;5098905;28;20392;-76
2023/10/26 10:42:24;;;;;;;27.08;11.10;;;;;;;;;;5090548;28;20428;-77
2023/10/26 10:44:53;;;;;;;27.58;11.45;;;;;;;;;;5080350;28;20765;-77
2023/10/26 10:47:19;;;;;;;26.67;10.10;;;;;;;;;;5099045;28;20402;-76
2023/10/26 10:49:46;;;;;;;27.38;10.80;;;;;;;;;;5099714;28;20418;-78
2023/10/26 10:52:15;;;;;;;26.83;9.80;;;;;;;;;;5086619;28;20931;-77
2023/10/26 10:54:47;;;;;;;26.95;9.40;;;;;;;;;;5105145;28;21008;-77
2023/10/26 10:57:30;;;;;;;23.02;7.53;;;;;;;;;;5084646;28;20410;-77
2023/10/26 10:59:56;;;;;;;21.92;7.07;;;;;;;;;;5082397;28;20412;-78
2023/10/26 11:02:23;;;;;;;20.00;5.93;;;;;;;;;;5113256;28;20404;-79
2023/10/26 11:04:51;;;;;;;23.27;6.47;;;;;;;;;;5097848;28;20410;-78
2023/10/26 11:07:27;;;;;;;23.27;8.07;;;;;;;;;;5094812;28;20758;-77
2023/10/26 11:09:57;;;;;;;23.15;8.90;;;;;;;;;;5099867;28;20449;-78
2023/10/26 11:12:24;;;;;;;26.92;10.00;;;;;;;;;;5104861;28;20881;-78
2023/10/26 11:14:52;;;;;;;25.77;8.97;;;;;;;;;;5094736;28;20492;-78
2023/10/26 11:17:19;;;;;;;27.42;11.45;;;;;;;;;;5098830;28;20493;-76
2023/10/26 11:19:46;;;;;;;23.85;8.95;;;;;;;;;;5094991;28;20420;-76
2023/10/26 11:22:13;;;;;;;25.92;10.15;;;;;;;;;;5099990;28;20410;-75
2023/10/26 11:24:41;;;;;;;24.85;9.70;;;;;;;;;;5100772;28;20404;-77
2023/10/26 11:27:09;;;;;;;25.25;9.43;;;;;;;;;;5100940;28;20418;-76
2023/10/26 11:29:36;;;;;;;25.58;9.13;;;;;;;;;;5082813;28;20533;-77
2023/10/26 11:32:03;;;;;;;24.67;8.93;;;;;;;;;;5093841;28;20512;-76
2023/10/26 11:34:29;;;;;;;23.98;8.65;;;;;;;;;;5095132;28;20408;-78
2023/10/26 11:36:57;;;;;;;22.65;8.27;;;;;;;;;;5097377;28;20501;-76
2023/10/26 11:39:24;;;;;;;22.47;7.90;;;;;;;;;;5095467;28;20408;-75
2023/10/26 11:41:54;;;;;;;23.92;8.18;;;;;;;;;;5096343;28;20414;-76
2023/10/26 11:44:25;;;;;;;21.83;7.40;;;;;;;;;;5094174;28;20485;-77
2023/10/26 11:46:58;;;;;;;23.80;8.02;;;;;;;;;;5088320;28;20406;-73
2023/10/26 11:49:56;;;;;;;21.52;6.50;;;;;;;;;;5104858;28;20481;-77
2023/10/26 11:52:22;;;;;;;20.83;6.35;;;;;;;;;;5100343;28;20400;-77
2023/10/26 11:54:52;;;;;;;19.98;5.63;;;;;;;;;;5103658;28;20492;-78
2023/10/26 11:57:20;;;;;;;22.15;5.80;;;;;;;;;;5109610;28;20436;-77
2023/10/26 11:59:47;;;;;;;19.27;5.80;;;;;;;;;;5085007;28;20398;-78
2023/10/26 12:02:13;;;;;;;21.45;6.50;;;;;;;;;;5103337;28;21024;-77
2023/10/26 12:04:40;;;;;;;19.75;6.65;;;;;;;;;;5102564;28;20455;-76
2023/10/26 12:07:07;;;;;;;19.60;5.70;;;;;;;;;;5102923;28;20400;-76
2023/10/26 12:09:34;;;;;;;19.52;5.60;;;;;;;;;;5101886;28;20412;-76
2023/10/26 12:12:00;;;;;;;18.52;5.18;;;;;;;;;;5103778;28;20409;-76
2023/10/26 12:14:28;;;;;;;19.20;5.50;;;;;;;;;;5098030;28;20901;-76
2023/10/26 12:16:57;;;;;;;17.63;4.40;;;;;;;;;;5105184;28;20516;-76
2023/10/26 12:19:23;;;;;;;18.45;4.97;;;;;;;;;;5096720;28;20504;-75
2023/10/26 12:21:52;;;;;;;19.05;4.50;;;;;;;;;;5100862;28;20462;-76
2023/10/26 12:24:21;;;;;;;18.50;4.50;;;;;;;;;;5101873;27;20456;-76
2023/10/26 12:26:47;;;;;;;19.50;4.55;;;;;;;;;;5104993;28;20406;-76
2023/10/26 12:29:14;;;;;;;17.75;4.38;;;;;;;;;;5100425;28;20534;-77
2023/10/26 12:31:42;;;;;;;18.50;4.73;;;;;;;;;;5101274;28;20922;-76
2023/10/26 12:34:09;;;;;;;18.23;4.70;;;;;;;;;;5092498;28;20402;-75
2023/10/26 12:36:35;;;;;;;18.80;4.85;;;;;;;;;;5095655;28;20534;-75
2023/10/26 12:39:03;;;;;;;19.17;5.20;;;;;;;;;;5086095;28;20496;-76
2023/10/26 12:41:29;;;;;;;20.37;5.07;;;;;;;;;;5098557;28;20402;-76
2023/10/26 12:43:56;;;;;;;20.00;5.40;;;;;;;;;;5103385;28;20527;-76
2023/10/26 12:46:22;;;;;;;19.50;4.85;;;;;;;;;;5104508;28;20451;-77
2023/10/26 12:48:50;;;;;;;18.90;5.43;;;;;;;;;;5099582;28;20854;-76
2023/10/26 12:51:17;;;;;;;18.43;5.03;;;;;;;;;;5103262;28;20420;-76
2023/10/26 12:53:43;;;;;;;19.70;5.20;;;;;;;;;;5092756;28;20437;-77
2023/10/26 12:56:10;;;;;;;18.73;5.07;;;;;;;;;;5108977;28;20405;-77
2023/10/26 12:58:36;;;;;;;20.63;5.50;;;;;;;;;;5100985;28;20431;-75
2023/10/26 13:01:03;;;;;;;21.10;5.50;;;;;;;;;;5101569;28;20404;-77
2023/10/26 13:03:30;;;;;;;18.90;4.47;;;;;;;;;;5100289;28;20491;-76
2023/10/26 13:05:58;;;;;;;20.02;5.72;;;;;;;;;;5100613;28;20955;-77
2023/10/26 13:08:24;;;;;;;19.85;5.72;;;;;;;;;;5102044;28;20412;-76
2023/10/26 13:10:51;;;;;;;19.07;5.97;;;;;;;;;;5101151;28;20755;-75
2023/10/26 13:13:18;;;;;;;19.17;5.23;;;;;;;;;;5095584;28;21040;-76
2023/10/26 13:15:44;;;;;;;19.60;5.00;;;;;;;;;;5098214;28;20408;-76
2023/10/26 13:18:11;;;;;;;18.88;5.63;;;;;;;;;;5102961;28;20400;-76
2023/10/26 13:20:37;;;;;;;20.38;5.38;;;;;;;;;;5100703;28;20966;-76
2023/10/26 13:23:05;;;;;;;21.30;5.50;;;;;;;;;;5098530;28;20406;-77
2023/10/26 13:25:32;;;;;;;20.25;5.53;;;;;;;;;;5107490;28;20473;-76
2023/10/26 13:28:00;;;;;;;18.63;4.70;;;;;;;;;;5099196;28;20469;-76
2023/10/26 13:30:27;;;;;;;19.00;5.33;;;;;;;;;;5087452;28;20512;-78
2023/10/26 13:32:54;;;;;;;18.60;4.80;;;;;;;;;;5099873;28;20403;-75
2023/10/26 13:35:21;;;;;;;18.67;4.60;;;;;;;;;;5101052;28;20862;-75
2023/10/26 13:37:47;;;;;;;20.40;4.60;;;;;;;;;;5096576;28;21161;-76
2023/10/26 13:40:15;;;;;;;19.50;5.50;;;;;;;;;;5097845;28;20473;-75
2023/10/26 13:42:42;;;;;;;17.92;4.68;;;;;;;;;;5100565;28;20412;-77
2023/10/26 13:45:09;;;;;;;19.83;4.63;;;;;;;;;;5100308;28;20476;-76
2023/10/26 13:47:35;;;;;;;19.05;4.78;;;;;;;;;;5102039;28;20497;-76
2023/10/26 13:50:02;;;;;;;18.35;4.85;;;;;;;;;;5101374;28;21650;-76
2023/10/26 13:52:29;;;;;;;19.60;5.15;;;;;;;;;;5098697;28;20414;-74
2023/10/26 13:54:56;;;;;;;19.13;5.10;;;;;;;;;;5096010;28;20469;-75
2023/10/26 13:57:24;;;;;;;19.40;5.53;;;;;;;;;;5099043;28;20422;-77
2023/10/26 13:59:51;;;;;;;18.58;5.22;;;;;;;;;;5099870;28;20401;-75
2023/10/26 14:02:19;;;;;;;18.42;4.30;;;;;;;;;;5081647;28;20458;-74
2023/10/26 14:04:46;;;;;;;18.80;5.18;;;;;;;;;;5098842;28;20475;-75
2023/10/26 14:07:12;;;;;;;19.25;4.43;;;;;;;;;;5103082;28;20393;-75
2023/10/26 14:09:39;;;;;;;18.70;5.28;;;;;;;;;;5102411;28;20487;-75
2023/10/26 14:12:06;;;;;;;20.42;5.13;;;;;;;;;;5106140;28;20412;-76
2023/10/26 14:14:34;;;;;;;19.02;5.43;;;;;;;;;;5099238;28;20420;-76
2023/10/26 14:17:03;;;;;;;19.63;4.90;;;;;;;;;;5096019;28;20409;-77
2023/10/26 14:19:30;;;;;;;18.93;5.10;;;;;;;;;;5100102;28;21200;-76
2023/10/26 14:21:57;;;;;;;18.77;4.60;;;;;;;;;;5099480;28;20398;-76
2023/10/26 14:24:23;;;;;;;19.60;4.63;;;;;;;;;;5109315;28;20923;-77
2023/10/26 14:26:51;;;;;;;20.10;5.40;;;;;;;;;;5097408;28;20464;-75